createdAt,value
2022-11-17T00:17:06.446Z,9.9
2022-11-17T00:27:07.370Z,9.9
2022-11-17T00:37:08.397Z,10
2022-11-17T00:57:09.516Z,9.7
2022-11-17T01:07:10.234Z,9.8
2022-11-17T01:17:11.109Z,9.8
2022-11-17T01:27:11.731Z,9.8
2022-11-17T01:37:11.950Z,9.8
2022-11-17T02:07:13.696Z,9.6
2022-11-17T02:37:15.267Z,9.5
2022-11-17T02:47:16.352Z,9.5
2022-11-17T02:57:16.878Z,9.5
2022-11-17T03:07:17.131Z,9.5
2022-11-17T03:17:17.256Z,9.5
2022-11-17T03:27:17.988Z,9.6
2022-11-17T03:37:18.186Z,9.6
2022-11-17T03:47:18.647Z,9.6
2022-11-17T03:57:19.218Z,9.6
2022-11-17T04:07:19.546Z,9.6
2022-11-17T04:17:20.090Z,9.6
2022-11-17T04:27:20.363Z,9.6
2022-11-17T04:37:21.148Z,9.6
2022-11-17T04:47:21.740Z,9.6
2022-11-17T04:57:22.499Z,9.6
2022-11-17T05:07:22.685Z,9.7
2022-11-17T05:17:23.211Z,9.8
2022-11-17T05:27:23.583Z,9.8
2022-11-17T05:37:24.665Z,9.8
2022-11-17T05:57:25.900Z,9.8
2022-11-17T06:17:27.378Z,9.9
2022-11-17T06:27:28.091Z,9.8
2022-11-17T06:37:28.749Z,9.7
2022-11-17T06:57:29.089Z,9.6
2022-11-17T07:07:29.452Z,9.6
2022-11-17T07:17:29.539Z,9.6
2022-11-17T07:27:30.009Z,9.8
2022-11-17T07:37:30.170Z,9.9
2022-11-17T07:47:30.582Z,10.1
2022-11-17T07:57:31.040Z,10.2
2022-11-17T08:07:31.435Z,10.3
2022-11-17T08:17:32.182Z,10.5
2022-11-17T08:27:32.665Z,10.7
2022-11-17T08:47:33.430Z,10.7
2022-11-17T09:17:35.230Z,10.6
2022-11-17T09:27:36.268Z,10.6
2022-11-17T10:07:38.300Z,10.6
2022-11-17T10:17:39.356Z,10.7
2022-11-17T10:27:39.802Z,10.9
2022-11-17T10:37:40.452Z,11
2022-11-17T10:47:40.609Z,11.1
2022-11-17T11:07:41.304Z,11.4
2022-11-17T11:17:41.494Z,11.5
2022-11-17T11:27:42.497Z,11.7
2022-11-17T11:37:43.143Z,12
2022-11-17T11:47:43.371Z,12.3
2022-11-17T11:57:43.828Z,12.2
2022-11-17T12:27:45.656Z,12
2022-11-17T12:37:46.645Z,12
2022-11-17T12:47:59.330Z,12.1
2022-11-17T12:57:47.763Z,12.1
2022-11-17T13:07:48.806Z,12
2022-11-17T13:17:49.712Z,11.8
2022-11-17T13:27:55.198Z,11.8
2022-11-17T13:37:49.855Z,11.8
2022-11-17T13:47:50.420Z,11.7
2022-11-17T13:57:51.473Z,11.6
2022-11-17T14:07:52.198Z,11.5
2022-11-17T14:17:53.031Z,11.3
2022-11-17T14:27:53.531Z,11.2
2022-11-17T14:37:53.739Z,11.2
2022-11-17T14:47:54.505Z,11.2
2022-11-17T14:57:55.562Z,11.3
2022-11-17T15:07:56.532Z,11.3
2022-11-17T15:17:56.970Z,11.4
2022-11-17T15:27:57.312Z,11.4
2022-11-17T15:37:57.569Z,11.2
2022-11-17T15:47:58.346Z,11
2022-11-17T16:07:59.383Z,10.8
2022-11-17T16:18:00.092Z,10.7
2022-11-17T16:28:00.843Z,10.7
2022-11-17T16:38:01.555Z,10.7
2022-11-17T16:48:01.775Z,10.6
2022-11-17T16:58:02.727Z,10.6
2022-11-17T17:08:02.932Z,10.6
2022-11-17T17:18:03.355Z,11
2022-11-17T17:28:03.910Z,11
2022-11-17T17:38:04.051Z,10.9
2022-11-17T17:48:04.911Z,10.9
2022-11-17T17:58:05.094Z,10.8
2022-11-17T18:08:05.308Z,10.7
2022-11-17T18:28:06.398Z,10
2022-11-17T18:38:06.745Z,9.7
2022-11-17T18:48:07.794Z,9.5
2022-11-17T18:58:08.276Z,9.3
2022-11-17T19:08:09.095Z,9.2
2022-11-17T19:38:10.294Z,8.9
2022-11-17T19:48:10.643Z,9
2022-11-17T19:58:11.654Z,9.5
2022-11-17T20:08:12.574Z,9.9
2022-11-17T20:18:13.343Z,9.9
2022-11-17T20:28:13.858Z,10
2022-11-17T20:38:15.833Z,10.1
2022-11-17T20:48:15.126Z,10.1
2022-11-17T20:58:15.380Z,10.1
2022-11-17T21:08:16.379Z,9.8
2022-11-17T21:18:16.845Z,9.6
2022-11-17T21:28:16.997Z,9.4
2022-11-17T21:38:17.575Z,9
2022-11-17T21:48:17.817Z,8.9
2022-11-17T22:08:18.634Z,8.5
2022-11-17T22:18:18.967Z,8.3
2022-11-17T22:28:19.081Z,8
2022-11-17T22:38:19.577Z,7.5
2022-11-17T22:48:20.627Z,7.1
2022-11-17T22:58:21.457Z,6.8
2022-11-17T23:08:22.460Z,6.6
2022-11-17T23:18:22.938Z,6.4
2022-11-17T23:28:23.800Z,6.2
2022-11-17T23:38:24.348Z,6.2
2022-11-17T23:38:46.271Z,6.2
2022-11-17T23:48:30.784Z,6.1
2022-11-17T23:58:31.054Z,6.1
